Tropical Cyclones
[Index]
Main Index Home Page Stock Weather Photos Extreme Storms Discussion Storm News and Storm Chasing Reports Tropical Cyclones / Hurricanes / Typhoons Weather Data and Links Wild Fires / Bushfires Weather Observation Techniques Weather Picture Catalogue Tornado Pictures and Reports Stock Video Footage and DVDs for sale
Season 1999-2000 Tropical Cyclone KIRRILY Track Map
Season 1999-2000 Summaries (Operational Data): [AU] [SIO] [SPAC] [SH]
<<- Previous TC | 1999-2000 Season | Next TC ->>

click for intensity scale information  Lat/long Grid: Show Hide

 Date Labels: Show Hide

Operational Tropical Cyclone Data : JTWC Advisories

Name: KIRRILY
Number: 0009

25 Jan 2000 04:00 UTC to 01 Feb 2000 18:00 UTC

    date/time    lat    long     hPa   cat  kts
2000-01-25 04   12.3   104.7    1002         25          
2000-01-25 10   12.9   106.1    1002         25          
2000-01-25 16   13.1   107.1    1002         25          
2000-01-25 22   13.6   108.1    1002         25          
2000-01-26 04   13.8   109.4     998         30          
2000-01-26 10   14.7   110.4     998         30          
2000-01-26 16   15.4   111.4     997         30          
2000-01-26 22   16.1   112.2     997         30          
2000-01-27 04   16.8   112.4     997         30          
2000-01-27 10   17.9   112.9     997         30          
2000-01-27 16   18.2   112.3     997         30          
2000-01-27 22   18.8   112.0     996         30          
2000-01-28 00   18.0   111.0     985    2    50          
2000-01-28 04   18.3   110.4     980    2    60          
2000-01-28 10   18.7   109.3     975    2    60          
2000-01-28 16   19.4   108.8     975    2    55          
2000-01-28 22   19.7   109.0     980    2    55          
2000-01-29 04   20.2   107.9     975    2    60          
2000-01-29 10   20.7   107.2     965    3    65          
2000-01-29 16   21.3   106.8     965    3    65          
2000-01-29 22   21.7   106.3     975    2    60          
2000-01-30 04   22.1   105.9     975    2    60          
2000-01-30 10   22.9   105.6     975    2    60          
2000-01-30 16   23.4   105.4     980    2    55          
2000-01-30 22   23.4   105.1     984    2    50          
2000-01-31 04   23.6   105.4     990    1    45          
2000-01-31 10   23.6   105.2     995    1    45          
2000-01-31 16   23.2   105.1     997    1    40          
2000-01-31 22   22.9   104.9     999    1    35          
2000-02-01 06   22.4   104.1                             
2000-02-01 18   21.9   102.8                             
Winds are 10-min average.

Tropical cyclone tracks developed by Michael Bath using operational warnings and advisories and Google Maps.


[Australian Severe Weather index] [Copyright Notice] [Email Contacts] [Search This Site] [Privacy Policy]
Document: tropical_cyclone_kirrily.htm Updated: 28 May 2013